Time;durP1;ratioP1;P1;durP2;ratioP2;P2;SDS_P1;SDS_P2;PMS_P1;PMS_P2;Temp;Humidity;BMP_temperature;BMP_pressure;BME280_temperature;BME280_humidity;BME280_pressure;Samples;Min_cycle;Max_cycle;Signal;HPM_P1;HPM_P2
2022/03/19 00:02:04;;;;;;;10.10;6.20;;;11.40;58.10;;;;;;5016413;28;20451;-68
2022/03/19 00:04:30;;;;;;;12.03;6.87;;;11.40;58.30;;;;;;5016455;28;20436;-68
2022/03/19 00:06:59;;;;;;;8.20;6.63;;;11.40;58.40;;;;;;5016291;28;20464;-68
2022/03/19 00:09:26;;;;;;;6.60;5.77;;;11.30;58.40;;;;;;5016429;28;20444;-68
2022/03/19 00:11:54;;;;;;;14.00;6.40;;;11.30;58.50;;;;;;5016734;28;20963;-68
2022/03/19 00:14:21;;;;;;;7.00;5.50;;;11.30;58.70;;;;;;5034884;28;20492;-69
2022/03/19 00:16:47;;;;;;;9.43;5.97;;;11.30;58.60;;;;;;5016626;28;20543;-68
2022/03/19 00:19:14;;;;;;;7.23;6.23;;;11.30;58.60;;;;;;5016484;28;20450;-68
2022/03/19 00:21:41;;;;;;;6.93;5.83;;;11.30;59.00;;;;;;5015820;28;20940;-68
2022/03/19 00:24:10;;;;;;;8.27;5.80;;;11.20;58.90;;;;;;5016088;28;20447;-68
2022/03/19 00:26:36;;;;;;;7.20;5.67;;;11.20;58.90;;;;;;5015954;28;20502;-68
2022/03/19 00:29:03;;;;;;;8.17;6.10;;;11.20;59.10;;;;;;5033533;28;20458;-68
2022/03/19 00:31:30;;;;;;;6.97;5.93;;;11.20;59.10;;;;;;5035298;28;20946;-67
2022/03/19 00:33:57;;;;;;;8.20;5.73;;;11.10;59.10;;;;;;5036153;28;20819;-68
2022/03/19 00:36:24;;;;;;;12.90;6.07;;;11.10;59.10;;;;;;5025171;28;20575;-68
2022/03/19 00:38:51;;;;;;;6.67;5.10;;;11.10;59.20;;;;;;5017582;28;20439;-68
2022/03/19 00:41:19;;;;;;;6.93;6.07;;;11.10;59.40;;;;;;5031325;28;20470;-68
2022/03/19 00:43:46;;;;;;;9.87;6.37;;;11.10;59.30;;;;;;5035619;28;20457;-68
2022/03/19 00:46:13;;;;;;;7.53;5.60;;;11.10;59.40;;;;;;5035078;28;20956;-68
2022/03/19 00:48:40;;;;;;;12.50;6.57;;;11.10;59.50;;;;;;5034660;28;20470;-68
2022/03/19 00:51:07;;;;;;;9.50;6.47;;;11.00;59.50;;;;;;5034894;28;20492;-70
2022/03/19 00:53:34;;;;;;;11.83;6.50;;;11.00;59.60;;;;;;5034751;28;20462;-70
2022/03/19 00:56:00;;;;;;;7.10;5.33;;;11.00;59.70;;;;;;5015629;28;20495;-70
2022/03/19 00:58:29;;;;;;;7.07;6.20;;;11.00;59.90;;;;;;5015530;28;20456;-70
2022/03/19 01:00:55;;;;;;;6.33;5.33;;;10.90;59.80;;;;;;5015204;28;20451;-70
2022/03/19 01:03:22;;;;;;;7.07;5.80;;;10.90;59.90;;;;;;5025160;28;20467;-70
2022/03/19 01:05:49;;;;;;;8.93;5.70;;;10.90;60.10;;;;;;5034696;28;20478;-70
2022/03/19 01:08:16;;;;;;;6.70;5.73;;;10.80;60.00;;;;;;5035008;28;20443;-70
2022/03/19 01:10:43;;;;;;;8.57;6.10;;;10.80;60.00;;;;;;5034866;28;20453;-69
2022/03/19 01:13:10;;;;;;;7.30;5.60;;;10.80;60.10;;;;;;5035102;28;20541;-70
2022/03/19 01:15:38;;;;;;;6.17;5.57;;;10.70;60.10;;;;;;5034339;28;20498;-70
2022/03/19 01:18:06;;;;;;;6.87;5.50;;;10.60;60.10;;;;;;5034726;28;20458;-70
2022/03/19 01:20:33;;;;;;;9.00;5.73;;;10.60;60.30;;;;;;5034696;28;20900;-70
2022/03/19 01:23:01;;;;;;;8.60;6.07;;;10.60;60.40;;;;;;5035304;28;20494;-69
2022/03/19 01:25:28;;;;;;;7.07;5.60;;;10.50;60.50;;;;;;5034355;28;20990;-69
2022/03/19 01:27:55;;;;;;;11.40;6.03;;;10.50;60.80;;;;;;5034689;28;20465;-70
2022/03/19 01:30:24;;;;;;;9.57;6.03;;;10.40;60.80;;;;;;5035374;28;20473;-69
2022/03/19 01:32:52;;;;;;;7.00;6.30;;;10.40;60.90;;;;;;5035682;28;20457;-70
2022/03/19 01:35:20;;;;;;;8.93;6.70;;;10.30;61.10;;;;;;5034983;28;20898;-69
2022/03/19 01:37:48;;;;;;;10.60;5.20;;;10.30;61.30;;;;;;5035064;28;20434;-70
2022/03/19 01:40:15;;;;;;;7.23;5.73;;;10.30;61.70;;;;;;5034432;28;20488;-69
2022/03/19 01:42:45;;;;;;;7.63;6.43;;;10.20;61.90;;;;;;5034287;28;20451;-70
2022/03/19 01:45:14;;;;;;;9.93;6.20;;;10.20;62.10;;;;;;5033327;28;20485;-69
2022/03/19 01:47:41;;;;;;;12.40;7.67;;;10.10;62.10;;;;;;5034350;28;20454;-70
2022/03/19 01:50:11;;;;;;;6.83;6.10;;;10.10;62.10;;;;;;5034202;28;20446;-70
2022/03/19 01:52:38;;;;;;;10.27;6.63;;;10.00;61.90;;;;;;5033767;28;20957;-69
2022/03/19 01:55:07;;;;;;;8.63;6.53;;;9.90;62.60;;;;;;5034062;28;20496;-69
2022/03/19 01:57:37;;;;;;;10.17;7.30;;;9.90;62.40;;;;;;5034056;28;20508;-71
2022/03/19 02:00:05;;;;;;;8.60;6.73;;;9.80;62.30;;;;;;5033917;28;20465;-70
2022/03/19 02:02:32;;;;;;;7.93;7.10;;;9.70;62.10;;;;;;5033886;28;20789;-69
2022/03/19 02:05:01;;;;;;;6.10;5.50;;;9.60;62.20;;;;;;5033903;28;20545;-70
2022/03/19 02:07:30;;;;;;;10.70;6.37;;;9.60;62.50;;;;;;5033449;28;20991;-70
2022/03/19 02:09:58;;;;;;;10.90;6.93;;;9.50;62.80;;;;;;5034032;28;20458;-71
2022/03/19 02:12:24;;;;;;;6.50;5.80;;;9.50;63.40;;;;;;5033742;28;20472;-70
2022/03/19 02:14:51;;;;;;;7.10;6.10;;;9.50;63.80;;;;;;5033857;28;20482;-70
2022/03/19 02:17:19;;;;;;;7.37;6.33;;;9.50;64.10;;;;;;5033612;28;20470;-70
2022/03/19 02:19:50;;;;;;;9.43;6.40;;;9.40;64.20;;;;;;5033735;28;20439;-70
2022/03/19 02:22:18;;;;;;;9.50;6.07;;;9.40;63.80;;;;;;5033586;28;20455;-70
2022/03/19 02:27:31;;;;;;;8.27;6.47;;;9.30;63.50;;;;;;5033314;28;20419;-70
2022/03/19 02:29:58;;;;;;;8.20;5.80;;;9.30;63.80;;;;;;5033649;28;20446;-70
2022/03/19 02:32:25;;;;;;;9.10;6.27;;;9.20;64.20;;;;;;5033412;28;20529;-70
2022/03/19 02:34:52;;;;;;;8.80;6.27;;;9.20;64.60;;;;;;5033379;28;20492;-70
2022/03/19 02:37:19;;;;;;;9.80;6.70;;;9.20;65.20;;;;;;5034626;28;20473;-70
2022/03/19 02:39:48;;;;;;;9.83;7.20;;;9.10;65.60;;;;;;5039962;28;20442;-70
2022/03/19 02:42:17;;;;;;;9.40;6.97;;;9.10;66.30;;;;;;5039849;28;20819;-69
2022/03/19 02:44:45;;;;;;;7.70;6.60;;;9.10;66.90;;;;;;5039738;28;20462;-69
2022/03/19 02:47:12;;;;;;;7.50;6.13;;;9.10;67.20;;;;;;5039879;28;20469;-70
2022/03/19 02:49:39;;;;;;;13.77;6.90;;;9.10;67.30;;;;;;5040011;28;20472;-70
2022/03/19 02:52:07;;;;;;;13.17;6.60;;;9.10;67.20;;;;;;5039837;28;20450;-69
2022/03/19 02:54:34;;;;;;;12.47;7.33;;;9.10;67.50;;;;;;5039870;28;20450;-70
2022/03/19 02:57:02;;;;;;;8.23;6.47;;;9.10;67.60;;;;;;5039794;28;20513;-70
2022/03/19 02:59:30;;;;;;;8.90;6.27;;;9.10;67.80;;;;;;5039366;28;20466;-70
2022/03/19 03:01:58;;;;;;;11.90;8.33;;;9.10;67.90;;;;;;5039565;28;20443;-69
2022/03/19 03:04:25;;;;;;;10.43;7.07;;;9.00;68.00;;;;;;5039813;28;20442;-70
2022/03/19 03:06:54;;;;;;;8.53;6.70;;;9.00;68.20;;;;;;5039738;28;20489;-71
2022/03/19 03:09:23;;;;;;;11.93;7.90;;;9.00;68.20;;;;;;5039632;28;20457;-70
2022/03/19 03:11:49;;;;;;;6.83;6.00;;;9.00;68.20;;;;;;5039822;28;20453;-70
2022/03/19 03:14:20;;;;;;;8.37;6.80;;;8.90;68.30;;;;;;5039525;28;20458;-69
2022/03/19 03:16:47;;;;;;;9.47;7.50;;;8.90;68.30;;;;;;5039595;28;20493;-69
2022/03/19 03:19:15;;;;;;;11.40;7.67;;;8.90;68.40;;;;;;5039988;28;20443;-70
2022/03/19 03:21:43;;;;;;;8.50;6.83;;;8.90;68.70;;;;;;5039675;28;20453;-69
2022/03/19 03:24:10;;;;;;;9.90;6.90;;;8.80;68.70;;;;;;5039587;28;20450;-69
2022/03/19 03:26:37;;;;;;;12.17;6.47;;;8.80;68.90;;;;;;5039508;28;20476;-70
2022/03/19 03:29:05;;;;;;;9.90;6.70;;;8.80;69.00;;;;;;5039636;28;20488;-69
2022/03/19 03:31:33;;;;;;;11.57;7.77;;;8.70;69.00;;;;;;5039510;28;20450;-69
2022/03/19 03:34:01;;;;;;;9.47;7.50;;;8.70;69.10;;;;;;5039580;28;20457;-70
2022/03/19 03:36:27;;;;;;;8.73;7.83;;;8.70;69.30;;;;;;5039357;28;20492;-70
2022/03/19 03:38:54;;;;;;;8.23;7.20;;;8.70;69.40;;;;;;5039490;28;20458;-69
2022/03/19 03:41:21;;;;;;;8.13;7.40;;;8.60;69.50;;;;;;5039361;28;20879;-69
2022/03/19 03:43:48;;;;;;;7.83;6.80;;;8.60;69.50;;;;;;5039488;28;20454;-70
2022/03/19 03:46:15;;;;;;;9.10;7.57;;;8.50;69.70;;;;;;5039305;28;20990;-68
2022/03/19 03:48:43;;;;;;;9.87;7.90;;;8.50;69.80;;;;;;5039582;28;20824;-68
2022/03/19 03:51:12;;;;;;;9.93;7.90;;;8.50;69.90;;;;;;5037079;28;20443;-68
2022/03/19 03:53:39;;;;;;;10.47;7.30;;;8.50;70.20;;;;;;5036727;28;20477;-68
2022/03/19 03:56:09;;;;;;;13.50;8.30;;;8.50;70.50;;;;;;5037316;28;20500;-68
2022/03/19 03:58:36;;;;;;;9.33;8.10;;;8.40;70.70;;;;;;5037291;28;20482;-69
2022/03/19 04:01:03;;;;;;;10.40;8.00;;;8.40;71.10;;;;;;5037975;28;20760;-68
2022/03/19 04:03:30;;;;;;;10.10;8.23;;;8.40;71.50;;;;;;5038327;28;20453;-68
2022/03/19 04:05:58;;;;;;;9.23;8.30;;;8.40;71.90;;;;;;5037575;28;20472;-68
2022/03/19 04:08:24;;;;;;;10.27;7.80;;;8.30;71.90;;;;;;5037037;28;20455;-68
2022/03/19 04:10:51;;;;;;;13.20;8.87;;;8.30;72.40;;;;;;5037152;28;20415;-68
2022/03/19 04:13:18;;;;;;;9.83;8.80;;;8.30;72.60;;;;;;5035641;28;20825;-67
2022/03/19 04:15:45;;;;;;;12.13;8.93;;;8.30;72.90;;;;;;5036104;28;20490;-67
2022/03/19 04:18:13;;;;;;;13.77;9.40;;;8.30;73.10;;;;;;5035940;28;20447;-67
2022/03/19 04:20:40;;;;;;;12.33;8.97;;;8.30;73.40;;;;;;5035914;28;20455;-67
2022/03/19 04:23:08;;;;;;;12.73;9.50;;;8.30;73.70;;;;;;5035283;28;20469;-67
2022/03/19 04:25:35;;;;;;;11.27;8.60;;;8.30;74.60;;;;;;5035198;28;20853;-67
2022/03/19 04:28:03;;;;;;;9.60;8.47;;;8.30;73.90;;;;;;5035770;28;20454;-67
2022/03/19 04:30:30;;;;;;;10.47;9.27;;;8.30;74.20;;;;;;5035697;28;20450;-67
2022/03/19 04:32:59;;;;;;;11.87;9.90;;;8.30;74.50;;;;;;5035706;28;20457;-67
2022/03/19 04:38:14;;;;;;;9.67;8.33;;;8.20;75.70;;;;;;5035607;28;20421;-68
2022/03/19 04:40:42;;;;;;;10.27;9.07;;;8.20;75.20;;;;;;5035604;28;20435;-68
2022/03/19 04:43:09;;;;;;;10.33;8.13;;;8.20;75.20;;;;;;5035378;28;20474;-68
2022/03/19 04:45:36;;;;;;;10.47;9.30;;;8.20;75.20;;;;;;5034949;28;20482;-68
2022/03/19 04:48:03;;;;;;;10.03;8.93;;;8.20;75.50;;;;;;5035462;28;20451;-68
2022/03/19 04:50:30;;;;;;;13.30;9.67;;;8.20;75.40;;;;;;5035630;28;20443;-67
2022/03/19 04:52:57;;;;;;;15.10;10.20;;;8.20;75.50;;;;;;5034985;28;20450;-68
2022/03/19 04:55:26;;;;;;;12.07;9.10;;;8.10;75.60;;;;;;5035118;28;20473;-69
2022/03/19 04:57:52;;;;;;;10.97;9.33;;;8.10;75.60;;;;;;5035009;28;20455;-67
2022/03/19 05:00:20;;;;;;;9.63;8.67;;;8.10;75.70;;;;;;5034434;28;20465;-67
2022/03/19 05:02:47;;;;;;;12.60;9.57;;;8.10;75.70;;;;;;5034276;28;20458;-67
2022/03/19 05:05:14;;;;;;;10.77;8.57;;;8.10;75.80;;;;;;5034872;28;20816;-67
2022/03/19 05:07:40;;;;;;;13.93;10.50;;;8.00;75.70;;;;;;5034922;28;20541;-67
2022/03/19 05:12:55;;;;;;;15.00;9.33;;;8.00;75.80;;;;;;5034743;28;20524;-67
2022/03/19 05:15:21;;;;;;;11.70;8.70;;;8.00;75.80;;;;;;5034694;28;20478;-67
2022/03/19 05:17:48;;;;;;;10.10;9.10;;;7.90;75.70;;;;;;5034539;28;20963;-67
2022/03/19 05:20:16;;;;;;;11.47;9.17;;;7.90;75.90;;;;;;5034850;28;20446;-67
2022/03/19 05:22:43;;;;;;;11.00;8.33;;;7.90;76.10;;;;;;5034345;28;20447;-67
2022/03/19 05:25:10;;;;;;;9.43;8.43;;;7.90;76.30;;;;;;5034683;28;20450;-67
2022/03/19 05:27:37;;;;;;;11.10;9.13;;;7.90;76.50;;;;;;5034705;28;20509;-67
2022/03/19 05:30:07;;;;;;;14.00;10.03;;;7.90;76.60;;;;;;5034333;28;20960;-67
2022/03/19 05:32:34;;;;;;;15.00;8.93;;;7.90;76.70;;;;;;5034529;28;20462;-67
2022/03/19 05:35:02;;;;;;;11.70;9.40;;;7.90;76.90;;;;;;5034529;28;20443;-67
2022/03/19 05:37:29;;;;;;;13.20;9.47;;;7.90;78.00;;;;;;5033684;28;20494;-67
2022/03/19 05:39:56;;;;;;;12.73;8.53;;;7.90;77.50;;;;;;5033833;28;20450;-67
2022/03/19 05:42:23;;;;;;;18.07;9.13;;;7.90;78.00;;;;;;5034120;28;20473;-67
2022/03/19 05:44:50;;;;;;;11.70;8.90;;;7.80;78.10;;;;;;5033923;28;20481;-67
2022/03/19 05:47:18;;;;;;;11.70;10.40;;;7.80;78.20;;;;;;5034300;28;20841;-67
2022/03/19 05:49:45;;;;;;;16.03;10.00;;;7.80;78.60;;;;;;5036012;28;20533;-67
2022/03/19 05:52:11;;;;;;;11.83;9.00;;;7.80;78.70;;;;;;5037654;28;20443;-67
2022/03/19 05:54:38;;;;;;;11.20;9.27;;;7.80;78.80;;;;;;5036785;28;20457;-67
2022/03/19 05:57:05;;;;;;;12.30;9.97;;;7.80;78.90;;;;;;5034307;28;20494;-67
2022/03/19 05:59:32;;;;;;;12.23;10.87;;;7.80;79.00;;;;;;5033685;28;20978;-66
2022/03/19 06:01:59;;;;;;;11.03;8.90;;;7.80;79.00;;;;;;5034202;28;20441;-67
2022/03/19 06:04:27;;;;;;;15.80;10.63;;;7.80;79.00;;;;;;5033882;28;20454;-67
2022/03/19 06:06:53;;;;;;;13.00;9.97;;;7.80;79.00;;;;;;5033870;28;20474;-67
2022/03/19 06:09:20;;;;;;;12.33;9.07;;;7.80;79.20;;;;;;5033539;28;20864;-67
2022/03/19 06:11:47;;;;;;;14.80;10.20;;;7.80;79.30;;;;;;5033609;28;20453;-67
2022/03/19 06:14:14;;;;;;;9.03;8.03;;;7.80;79.40;;;;;;5033693;28;20452;-67
2022/03/19 06:16:40;;;;;;;12.90;9.97;;;7.70;79.40;;;;;;5033690;28;20486;-67
2022/03/19 06:19:07;;;;;;;10.20;9.10;;;7.80;79.70;;;;;;5033745;28;20451;-68
2022/03/19 06:21:35;;;;;;;9.53;8.63;;;7.80;79.60;;;;;;5033470;28;20944;-67
2022/03/19 06:24:05;;;;;;;10.37;9.07;;;7.80;79.70;;;;;;5033695;28;20446;-67
2022/03/19 06:26:32;;;;;;;10.80;9.70;;;7.70;79.90;;;;;;5033539;28;20883;-68
2022/03/19 06:28:59;;;;;;;10.13;8.97;;;7.80;80.30;;;;;;5033309;28;20970;-68
2022/03/19 06:31:26;;;;;;;10.83;9.37;;;7.80;80.50;;;;;;5033497;28;20443;-68
2022/03/19 06:33:52;;;;;;;13.60;10.23;;;7.80;80.60;;;;;;5033310;28;20488;-67
2022/03/19 06:39:06;;;;;;;12.63;10.20;;;7.80;81.70;;;;;;5033613;28;20418;-68
2022/03/19 06:41:33;;;;;;;12.53;8.83;;;7.80;82.20;;;;;;5033450;28;20496;-67
2022/03/19 06:44:00;;;;;;;14.83;10.80;;;7.90;82.60;;;;;;5033312;28;20455;-68
2022/03/19 06:46:27;;;;;;;11.30;9.10;;;7.90;82.70;;;;;;5033114;28;20840;-67
2022/03/19 06:48:54;;;;;;;11.70;9.60;;;7.90;83.10;;;;;;5033617;28;20446;-67
2022/03/19 06:51:21;;;;;;;14.60;10.57;;;7.90;83.00;;;;;;5033042;28;20940;-67
2022/03/19 06:53:48;;;;;;;11.50;9.37;;;8.00;83.50;;;;;;5033599;28;20457;-68
2022/03/19 06:56:17;;;;;;;12.13;10.60;;;8.00;83.80;;;;;;5033236;28;20498;-68
2022/03/19 06:58:44;;;;;;;15.90;9.40;;;8.00;84.80;;;;;;5033423;28;20435;-68
2022/03/19 07:01:15;;;;;;;17.47;12.00;;;8.00;85.40;;;;;;5033264;28;20877;-68
2022/03/19 07:03:43;;;;;;;10.73;9.60;;;8.00;86.10;;;;;;5033770;28;20499;-68
2022/03/19 07:06:10;;;;;;;14.00;10.80;;;8.10;86.20;;;;;;5033204;28;20509;-68
2022/03/19 07:08:37;;;;;;;12.60;9.30;;;8.10;86.30;;;;;;5032984;28;20951;-69
2022/03/19 07:11:04;;;;;;;13.37;10.03;;;8.20;86.70;;;;;;5033203;28;20500;-68
2022/03/19 07:13:32;;;;;;;12.13;10.07;;;8.30;86.50;;;;;;5033227;28;20447;-68
2022/03/19 07:15:59;;;;;;;13.50;10.20;;;8.40;86.40;;;;;;5033073;28;20474;-68
2022/03/19 07:18:26;;;;;;;13.93;10.23;;;8.50;86.20;;;;;;5033144;28;20451;-68
2022/03/19 07:20:53;;;;;;;13.20;9.47;;;8.60;86.00;;;;;;5033136;28;20450;-68
2022/03/19 07:23:19;;;;;;;12.67;10.27;;;8.70;85.90;;;;;;5032786;28;20952;-68
2022/03/19 07:25:46;;;;;;;13.57;9.97;;;8.80;86.00;;;;;;5036026;28;20481;-68
2022/03/19 07:28:17;;;;;;;16.30;9.50;;;8.80;85.90;;;;;;5036074;28;20862;-68
2022/03/19 07:30:46;;;;;;;12.03;9.50;;;8.90;85.90;;;;;;5036327;28;20467;-68
2022/03/19 07:33:13;;;;;;;14.33;10.33;;;9.10;85.80;;;;;;5037058;28;20795;-69
2022/03/19 07:35:40;;;;;;;14.57;10.60;;;9.10;85.80;;;;;;5037009;28;20829;-69
2022/03/19 07:38:07;;;;;;;13.70;9.17;;;9.30;86.30;;;;;;5036648;28;20530;-70
2022/03/19 07:43:20;;;;;;;13.90;9.53;;;9.40;85.80;;;;;;5036494;28;20970;-69
2022/03/19 07:45:49;;;;;;;11.50;8.47;;;9.40;85.40;;;;;;5035993;28;20490;-69
2022/03/19 07:48:16;;;;;;;13.40;7.67;;;9.50;85.00;;;;;;5036498;28;20442;-70
2022/03/19 07:50:43;;;;;;;9.37;8.47;;;9.60;84.70;;;;;;5035965;28;20466;-69
2022/03/19 07:53:10;;;;;;;9.93;8.33;;;9.70;84.60;;;;;;5035971;28;20450;-69
2022/03/19 07:55:37;;;;;;;8.87;7.90;;;9.80;84.40;;;;;;5036057;28;20478;-69
2022/03/19 07:58:04;;;;;;;11.90;8.90;;;9.90;84.60;;;;;;5036266;28;20580;-69
2022/03/19 08:00:31;;;;;;;12.80;9.20;;;10.00;83.30;;;;;;5036396;28;20446;-69
2022/03/19 08:02:59;;;;;;;10.27;8.50;;;10.10;81.90;;;;;;5036022;28;20510;-68
2022/03/19 08:05:26;;;;;;;9.70;8.70;;;10.20;81.70;;;;;;5029060;28;20954;-68
2022/03/19 08:07:53;;;;;;;14.67;9.27;;;10.30;81.20;;;;;;5017351;28;20443;-68
2022/03/19 08:10:20;;;;;;;12.53;7.70;;;10.40;80.80;;;;;;5032556;28;20462;-68
2022/03/19 08:12:47;;;;;;;13.30;9.77;;;10.50;79.20;;;;;;5037026;28;20454;-68
2022/03/19 08:15:14;;;;;;;13.13;7.57;;;10.70;79.00;;;;;;5037397;28;20435;-68
2022/03/19 08:17:42;;;;;;;9.67;6.53;;;10.80;78.30;;;;;;5037816;28;20477;-68
2022/03/19 08:20:11;;;;;;;9.70;6.70;;;10.90;77.40;;;;;;5037624;28;20455;-68
2022/03/19 08:22:39;;;;;;;8.27;6.30;;;11.00;76.90;;;;;;5037259;28;20930;-68
2022/03/19 08:25:07;;;;;;;11.40;7.90;;;11.20;76.40;;;;;;5037485;28;20485;-68
2022/03/19 08:27:34;;;;;;;12.87;8.00;;;11.30;75.80;;;;;;5039162;28;20457;-69
2022/03/19 08:30:03;;;;;;;11.23;7.33;;;11.40;75.50;;;;;;5040960;28;20427;-68
2022/03/19 08:32:30;;;;;;;11.23;7.30;;;11.50;75.20;;;;;;5041007;28;20447;-68
2022/03/19 08:34:57;;;;;;;11.03;7.77;;;11.60;74.70;;;;;;5034895;28;20461;-69
2022/03/19 08:37:26;;;;;;;7.43;6.73;;;11.70;74.80;;;;;;5036096;28;20491;-69
2022/03/19 08:42:37;;;;;;;10.80;7.50;;;11.80;74.40;;;;;;5035152;28;20398;-69
2022/03/19 08:45:05;;;;;;;10.33;6.70;;;11.90;73.20;;;;;;5034490;28;20462;-69
2022/03/19 08:47:31;;;;;;;10.30;7.80;;;12.00;73.50;;;;;;5034903;28;20478;-69
2022/03/19 08:49:59;;;;;;;11.17;8.40;;;12.00;73.10;;;;;;5034745;28;20470;-69
2022/03/19 08:52:27;;;;;;;11.37;7.60;;;12.10;73.90;;;;;;5034731;28;20458;-69
2022/03/19 08:54:55;;;;;;;12.57;7.87;;;12.10;73.20;;;;;;5034489;28;20806;-69
2022/03/19 08:57:22;;;;;;;8.03;6.67;;;12.20;73.60;;;;;;5034679;28;20489;-69
2022/03/19 08:59:49;;;;;;;11.23;7.30;;;12.30;73.00;;;;;;5015690;28;20447;-70
2022/03/19 09:02:16;;;;;;;8.10;7.30;;;12.40;72.20;;;;;;5015207;28;20451;-68
2022/03/19 09:04:42;;;;;;;11.47;7.43;;;12.40;70.90;;;;;;5028290;28;20834;-69
2022/03/19 09:07:09;;;;;;;9.07;7.00;;;12.50;70.60;;;;;;5034077;28;20485;-68
2022/03/19 09:09:37;;;;;;;11.03;8.30;;;12.60;70.20;;;;;;5032544;28;20454;-68
2022/03/19 09:12:05;;;;;;;11.23;7.33;;;12.60;69.60;;;;;;5014745;28;20862;-68
2022/03/19 09:14:32;;;;;;;11.20;6.57;;;12.70;69.30;;;;;;5024782;28;20463;-69
2022/03/19 09:16:58;;;;;;;14.80;7.87;;;12.80;69.40;;;;;;5014868;28;20498;-69
2022/03/19 09:19:27;;;;;;;8.90;8.00;;;12.90;68.80;;;;;;5014970;28;20471;-69
2022/03/19 09:21:53;;;;;;;9.90;8.17;;;13.00;69.30;;;;;;5015025;28;20447;-69
2022/03/19 09:24:20;;;;;;;12.77;7.03;;;13.10;69.10;;;;;;5014936;28;20439;-69
2022/03/19 09:26:48;;;;;;;10.00;7.57;;;13.20;68.30;;;;;;5014444;28;21006;-69
2022/03/19 09:29:15;;;;;;;10.47;6.67;;;13.30;68.20;;;;;;5014782;28;20470;-69
2022/03/19 09:31:42;;;;;;;8.63;7.50;;;13.40;67.60;;;;;;5025140;28;20468;-69
2022/03/19 09:34:10;;;;;;;9.67;6.47;;;13.60;66.90;;;;;;5034451;28;20457;-69
2022/03/19 09:36:37;;;;;;;8.13;5.90;;;13.70;66.50;;;;;;5034392;28;20474;-69
2022/03/19 09:39:03;;;;;;;12.73;7.30;;;13.90;65.10;;;;;;5033903;28;20450;-69
2022/03/19 09:41:30;;;;;;;8.30;6.47;;;14.10;63.80;;;;;;5030156;28;20467;-69
2022/03/19 09:43:59;;;;;;;7.90;6.10;;;14.30;63.60;;;;;;5014826;28;20487;-69
2022/03/19 09:46:26;;;;;;;7.97;5.37;;;14.40;62.90;;;;;;5023553;28;20570;-69
2022/03/19 09:48:53;;;;;;;9.90;5.17;;;14.60;60.20;;;;;;5033820;28;20481;-69
2022/03/19 09:51:22;;;;;;;6.10;4.50;;;14.90;58.50;;;;;;5034024;28;20497;-69
2022/03/19 09:53:50;;;;;;;5.00;4.23;;;15.00;57.70;;;;;;5033374;28;20470;-69
2022/03/19 09:56:17;;;;;;;7.73;4.37;;;15.30;57.00;;;;;;5033973;28;20485;-69
2022/03/19 09:58:44;;;;;;;6.23;4.27;;;15.50;56.50;;;;;;5034096;28;20527;-69
2022/03/19 10:01:12;;;;;;;6.80;4.60;;;15.90;55.90;;;;;;5034055;28;20466;-69
2022/03/19 10:03:40;;;;;;;7.33;4.17;;;16.20;54.60;;;;;;5033629;28;20817;-69
2022/03/19 10:08:57;;;;;;;5.60;3.30;;;16.90;49.30;;;;;;5034013;28;20531;-69
2022/03/19 10:11:25;;;;;;;5.70;3.00;;;17.40;48.10;;;;;;5034094;28;20450;-69
2022/03/19 10:13:52;;;;;;;6.97;3.60;;;17.70;46.30;;;;;;5032894;28;20867;-68
2022/03/19 10:16:24;;;;;;;4.77;2.50;;;18.10;45.60;;;;;;5033674;28;20644;-68
2022/03/19 10:18:56;;;;;;;4.40;3.37;;;18.50;44.10;;;;;;5033741;28;20470;-69
2022/03/19 10:21:23;;;;;;;4.50;3.20;;;18.90;43.60;;;;;;5033729;28;20453;-68
2022/03/19 10:23:50;;;;;;;4.40;2.80;;;19.30;42.50;;;;;;5033437;28;20438;-69
2022/03/19 10:26:28;;;;;;;5.20;3.27;;;19.70;39.90;;;;;;5033483;28;20476;-69
2022/03/19 10:29:00;;;;;;;5.00;2.80;;;20.20;37.00;;;;;;5033509;28;20439;-69
2022/03/19 10:31:33;;;;;;;3.60;2.37;;;20.50;36.00;;;;;;5033670;28;20438;-69
2022/03/19 10:34:00;;;;;;;5.47;2.60;;;20.90;35.00;;;;;;5033817;28;20441;-69
2022/03/19 10:36:31;;;;;;;3.20;2.50;;;21.20;32.90;;;;;;5033175;28;20870;-69
2022/03/19 10:38:59;;;;;;;3.97;2.80;;;21.60;32.80;;;;;;5033451;28;20478;-69
2022/03/19 10:41:25;;;;;;;5.17;2.90;;;22.10;31.50;;;;;;5033510;28;20485;-69
2022/03/19 10:43:52;;;;;;;2.40;2.20;;;22.60;30.80;;;;;;5033351;28;20450;-69
2022/03/19 10:46:20;;;;;;;5.20;2.80;;;23.00;30.00;;;;;;5033413;28;20822;-70
2022/03/19 10:48:52;;;;;;;4.73;2.77;;;23.50;29.30;;;;;;5033417;28;20442;-67
2022/03/19 10:51:20;;;;;;;5.10;2.43;;;24.00;28.50;;;;;;5033626;28;20443;-67
2022/03/19 10:53:47;;;;;;;3.70;3.10;;;24.50;27.50;;;;;;5033208;28;20486;-67
2022/03/19 10:56:15;;;;;;;4.83;2.50;;;24.90;27.00;;;;;;5033453;28;20462;-68
2022/03/19 10:58:42;;;;;;;3.37;2.17;;;25.40;26.40;;;;;;5034960;28;20577;-68
2022/03/19 11:01:12;;;;;;;4.70;2.20;;;25.80;25.10;;;;;;5037571;28;20434;-68
2022/03/19 11:03:42;;;;;;;2.47;1.80;;;26.20;24.00;;;;;;5037274;28;20866;-67
2022/03/19 11:06:11;;;;;;;3.50;1.67;;;26.50;23.40;;;;;;5037507;28;20998;-67
2022/03/19 11:44:23;;;;;;;4.30;2.97;;;28.10;19.90;;;;;;5090448;28;20555;-64
2022/03/19 11:46:57;;;;;;;4.77;3.23;;;30.10;20.30;;;;;;5090301;28;20518;-64
2022/03/19 11:49:44;;;;;;;3.93;2.70;;;30.40;19.60;;;;;;5090316;28;20504;-63
2022/03/19 11:52:10;;;;;;;5.03;3.07;;;30.70;19.60;;;;;;5090379;28;20478;-64
2022/03/19 11:55:06;;;;;;;4.17;2.50;;;30.90;18.50;;;;;;5090262;28;20943;-63
2022/03/19 11:57:50;;;;;;;3.00;2.30;;;31.10;18.70;;;;;;5090607;28;20434;-63
2022/03/19 12:00:19;;;;;;;3.47;2.97;;;31.50;18.90;;;;;;5090389;28;20843;-64
2022/03/19 12:03:10;;;;;;;3.73;2.63;;;31.90;18.40;;;;;;5090619;28;20467;-65
2022/03/19 12:05:38;;;;;;;4.33;3.20;;;32.10;17.80;;;;;;5092287;28;20432;-65
2022/03/19 12:22:09;;;;;;;4.13;3.00;;;32.40;16.30;;;;;;5132545;27;20547;-70
2022/03/19 12:24:46;;;;;;;3.60;3.07;;;32.30;17.00;;;;;;5116776;28;20466;-71
2022/03/19 12:27:18;;;;;;;5.40;3.10;;;32.50;17.20;;;;;;5111539;28;20450;-69
2022/03/19 12:29:45;;;;;;;5.60;3.77;;;32.80;16.70;;;;;;5111730;28;20834;-70
2022/03/19 12:32:12;;;;;;;4.03;3.10;;;33.00;16.50;;;;;;5111157;28;20478;-70
2022/03/19 12:34:40;;;;;;;5.73;3.07;;;33.10;16.60;;;;;;5111280;28;20438;-71
2022/03/19 12:37:07;;;;;;;6.57;3.03;;;33.20;15.90;;;;;;5110998;28;20455;-71
2022/03/19 12:39:35;;;;;;;3.40;2.77;;;33.40;17.00;;;;;;5111030;28;20457;-71
2022/03/19 12:42:01;;;;;;;6.07;3.53;;;33.70;16.70;;;;;;5117376;28;20490;-71
2022/03/19 12:44:29;;;;;;;4.27;3.10;;;33.90;15.90;;;;;;5131318;28;20536;-71
2022/03/19 12:46:58;;;;;;;3.93;3.00;;;34.10;15.00;;;;;;5131352;28;20449;-71
2022/03/19 12:49:26;;;;;;;3.10;2.73;;;34.20;15.40;;;;;;5120371;28;20458;-71
2022/03/19 12:51:53;;;;;;;3.50;2.80;;;34.10;15.20;;;;;;5110859;28;20480;-72
2022/03/19 12:54:22;;;;;;;3.30;3.00;;;34.20;15.40;;;;;;5111002;28;20437;-71
2022/03/19 12:56:50;;;;;;;3.77;2.87;;;34.30;14.70;;;;;;5110796;28;20876;-69
2022/03/19 12:59:19;;;;;;;3.23;2.30;;;34.30;15.20;;;;;;5110654;28;20516;-69
2022/03/19 13:01:46;;;;;;;3.80;2.47;;;34.50;14.70;;;;;;5110456;28;20459;-69
2022/03/19 13:04:23;;;;;;;4.20;2.13;;;34.60;14.20;;;;;;5110324;28;21002;-69
2022/03/19 13:06:50;;;;;;;4.90;3.33;;;34.60;14.60;;;;;;5110754;28;20434;-69
2022/03/19 13:09:31;;;;;;;3.27;1.93;;;34.60;13.40;;;;;;5111328;28;20438;-69
2022/03/19 13:12:00;;;;;;;4.03;2.40;;;34.60;14.00;;;;;;5110955;28;20549;-69
2022/03/19 13:14:26;;;;;;;6.63;2.20;;;34.60;13.80;;;;;;5110644;28;20443;-69
2022/03/19 13:16:55;;;;;;;3.30;1.80;;;34.60;14.10;;;;;;5110610;28;20446;-69
2022/03/19 13:19:23;;;;;;;2.70;2.03;;;34.50;13.70;;;;;;5110833;28;20446;-69
2022/03/19 13:21:50;;;;;;;3.70;2.33;;;34.40;13.60;;;;;;5103721;28;21044;-69
2022/03/19 13:24:19;;;;;;;6.93;1.80;;;34.50;13.50;;;;;;5097815;28;20549;-69
2022/03/19 13:26:46;;;;;;;5.37;2.20;;;34.50;13.60;;;;;;5097328;28;20525;-69
2022/03/19 13:29:16;;;;;;;3.57;1.90;;;34.50;13.90;;;;;;5098135;28;20534;-69
2022/03/19 13:31:55;;;;;;;4.40;1.83;;;34.40;13.40;;;;;;5098417;28;20482;-69
2022/03/19 13:34:23;;;;;;;2.90;1.70;;;34.40;13.80;;;;;;5098429;28;20526;-69
2022/03/19 13:36:51;;;;;;;1.80;1.40;;;34.40;13.70;;;;;;5099845;28;20492;-69
2022/03/19 13:39:22;;;;;;;5.50;1.80;;;34.60;13.80;;;;;;5099904;28;20485;-69
2022/03/19 13:41:49;;;;;;;5.40;2.10;;;34.70;13.50;;;;;;5100286;28;20460;-69
2022/03/19 13:44:37;;;;;;;3.57;1.93;;;34.90;13.10;;;;;;5099866;28;20802;-69
2022/03/19 13:47:15;;;;;;;2.00;1.77;;;34.90;13.00;;;;;;5097349;28;20438;-69
2022/03/19 13:49:44;;;;;;;3.40;2.40;;;34.90;12.60;;;;;;5097069;28;20817;-69
2022/03/19 13:52:33;;;;;;;3.53;2.30;;;35.00;13.00;;;;;;5096139;28;20223;-69
2022/03/19 13:55:02;;;;;;;2.83;1.93;;;35.10;12.90;;;;;;5096162;28;20185;-69
2022/03/19 13:57:37;;;;;;;3.00;2.13;;;35.10;11.80;;;;;;5096063;28;20443;-69
2022/03/19 14:00:14;;;;;;;4.13;1.97;;;35.10;12.50;;;;;;5095662;28;20562;-69